sensor_id;sensor_type;location;lat;lon;timestamp;pressure;altitude;pressure_sealevel;temperature;humidity
12777;BME280;6452;41.572;23.732;2023-11-21T00:00:15;95241.16;;;4.33;nan
12777;BME280;6452;41.572;23.732;2023-11-21T00:02:41;95209.09;;;4.11;nan
12777;BME280;6452;41.572;23.732;2023-11-21T00:05:09;95204.25;;;4.08;nan
12777;BME280;6452;41.572;23.732;2023-11-21T00:07:37;95238.91;;;4.37;nan
12777;BME280;6452;41.572;23.732;2023-11-21T00:10:04;95243.59;;;4.35;nan
12777;BME280;6452;41.572;23.732;2023-11-21T00:12:32;95238.66;;;4.45;nan
12777;BME280;6452;41.572;23.732;2023-11-21T00:15:03;95252.47;;;4.40;nan
12777;BME280;6452;41.572;23.732;2023-11-21T00:17:35;95213.72;;;4.16;nan
12777;BME280;6452;41.572;23.732;2023-11-21T00:20:02;95229.91;;;4.19;nan
12777;BME280;6452;41.572;23.732;2023-11-21T00:22:34;95147.78;;;3.73;nan
12777;BME280;6452;41.572;23.732;2023-11-21T00:25:06;95202.66;;;4.07;nan
12777;BME280;6452;41.572;23.732;2023-11-21T00:27:35;95207.06;;;3.82;nan
12777;BME280;6452;41.572;23.732;2023-11-21T00:30:02;95199.41;;;3.80;nan
12777;BME280;6452;41.572;23.732;2023-11-21T00:32:30;95252.03;;;4.18;nan
12777;BME280;6452;41.572;23.732;2023-11-21T00:35:00;95254.66;;;3.93;nan
12777;BME280;6452;41.572;23.732;2023-11-21T00:37:27;95261.34;;;3.96;nan
12777;BME280;6452;41.572;23.732;2023-11-21T00:39:53;95255.97;;;3.78;nan
12777;BME280;6452;41.572;23.732;2023-11-21T00:42:20;95272.47;;;3.98;nan
12777;BME280;6452;41.572;23.732;2023-11-21T00:44:47;95274.91;;;4.00;nan
12777;BME280;6452;41.572;23.732;2023-11-21T00:47:13;95278.19;;;3.95;nan
12777;BME280;6452;41.572;23.732;2023-11-21T00:49:40;95272.31;;;3.93;nan
12777;BME280;6452;41.572;23.732;2023-11-21T00:52:06;95270.47;;;3.93;nan
12777;BME280;6452;41.572;23.732;2023-11-21T00:54:33;95262.41;;;3.88;nan
12777;BME280;6452;41.572;23.732;2023-11-21T00:57:00;95265.28;;;3.80;nan
12777;BME280;6452;41.572;23.732;2023-11-21T00:59:26;95250.50;;;3.79;nan
12777;BME280;6452;41.572;23.732;2023-11-21T01:01:53;95177.25;;;3.25;nan
12777;BME280;6452;41.572;23.732;2023-11-21T01:04:20;95259.38;;;3.85;nan
12777;BME280;6452;41.572;23.732;2023-11-21T01:06:46;95255.38;;;3.76;nan
12777;BME280;6452;41.572;23.732;2023-11-21T01:09:13;95258.38;;;3.86;nan
12777;BME280;6452;41.572;23.732;2023-11-21T01:11:47;95255.16;;;3.77;nan
12777;BME280;6452;41.572;23.732;2023-11-21T01:14:17;95261.66;;;3.75;nan
12777;BME280;6452;41.572;23.732;2023-11-21T01:16:45;95174.06;;;3.17;nan
12777;BME280;6452;41.572;23.732;2023-11-21T01:19:12;95207.50;;;3.47;nan
12777;BME280;6452;41.572;23.732;2023-11-21T01:21:39;95255.00;;;3.72;nan
12777;BME280;6452;41.572;23.732;2023-11-21T01:24:06;95261.25;;;3.78;nan
12777;BME280;6452;41.572;23.732;2023-11-21T01:26:33;95215.31;;;3.29;nan
12777;BME280;6452;41.572;23.732;2023-11-21T01:29:00;95210.06;;;3.29;nan
12777;BME280;6452;41.572;23.732;2023-11-21T01:31:27;95259.72;;;3.64;nan
12777;BME280;6452;41.572;23.732;2023-11-21T01:33:58;95251.19;;;3.62;nan
12777;BME280;6452;41.572;23.732;2023-11-21T01:36:32;95260.31;;;3.66;nan
12777;BME280;6452;41.572;23.732;2023-11-21T01:38:59;95173.09;;;3.04;nan
12777;BME280;6452;41.572;23.732;2023-11-21T01:41:27;95259.88;;;3.69;nan
12777;BME280;6452;41.572;23.732;2023-11-21T01:43:54;95213.22;;;3.44;nan
12777;BME280;6452;41.572;23.732;2023-11-21T01:46:24;95201.38;;;3.22;nan
12777;BME280;6452;41.572;23.732;2023-11-21T01:48:50;95248.00;;;3.60;nan
12777;BME280;6452;41.572;23.732;2023-11-21T01:51:17;95198.72;;;3.29;nan
12777;BME280;6452;41.572;23.732;2023-11-21T01:53:44;95231.47;;;3.39;nan
12777;BME280;6452;41.572;23.732;2023-11-21T01:56:13;95241.97;;;3.46;nan
12777;BME280;6452;41.572;23.732;2023-11-21T01:58:40;95254.50;;;3.50;nan
12777;BME280;6452;41.572;23.732;2023-11-21T02:01:07;95237.47;;;3.53;nan
12777;BME280;6452;41.572;23.732;2023-11-21T02:03:35;95240.09;;;3.53;nan
12777;BME280;6452;41.572;23.732;2023-11-21T02:06:02;95192.91;;;3.13;nan
12777;BME280;6452;41.572;23.732;2023-11-21T02:08:30;95251.09;;;3.43;nan
12777;BME280;6452;41.572;23.732;2023-11-21T02:10:56;95247.88;;;3.41;nan
12777;BME280;6452;41.572;23.732;2023-11-21T02:13:23;95240.91;;;3.53;nan
12777;BME280;6452;41.572;23.732;2023-11-21T02:15:50;95246.63;;;3.50;nan
12777;BME280;6452;41.572;23.732;2023-11-21T02:18:18;95201.78;;;3.19;nan
12777;BME280;6452;41.572;23.732;2023-11-21T02:20:50;95168.03;;;3.03;nan
12777;BME280;6452;41.572;23.732;2023-11-21T02:23:20;95248.88;;;3.40;nan
12777;BME280;6452;41.572;23.732;2023-11-21T02:25:49;95243.38;;;3.48;nan
12777;BME280;6452;41.572;23.732;2023-11-21T02:28:16;95246.84;;;3.42;nan
12777;BME280;6452;41.572;23.732;2023-11-21T02:30:52;95249.09;;;3.45;nan
12777;BME280;6452;41.572;23.732;2023-11-21T02:33:22;95244.59;;;3.52;nan
12777;BME280;6452;41.572;23.732;2023-11-21T02:35:49;95238.50;;;3.52;nan
12777;BME280;6452;41.572;23.732;2023-11-21T02:38:16;95242.16;;;3.51;nan
12777;BME280;6452;41.572;23.732;2023-11-21T02:40:43;95236.69;;;3.46;nan
12777;BME280;6452;41.572;23.732;2023-11-21T02:43:09;95238.09;;;3.48;nan
12777;BME280;6452;41.572;23.732;2023-11-21T02:45:36;95227.41;;;3.43;nan
12777;BME280;6452;41.572;23.732;2023-11-21T02:48:03;95232.84;;;3.48;nan
12777;BME280;6452;41.572;23.732;2023-11-21T02:50:32;95196.88;;;3.29;nan
12777;BME280;6452;41.572;23.732;2023-11-21T02:52:58;95232.84;;;3.48;nan
12777;BME280;6452;41.572;23.732;2023-11-21T02:55:27;95183.31;;;3.26;nan
12777;BME280;6452;41.572;23.732;2023-11-21T02:57:53;95221.50;;;3.48;nan
12777;BME280;6452;41.572;23.732;2023-11-21T03:00:22;95201.50;;;3.34;nan
12777;BME280;6452;41.572;23.732;2023-11-21T03:02:50;95217.47;;;3.39;nan
12777;BME280;6452;41.572;23.732;2023-11-21T03:05:17;95236.63;;;3.21;nan
12777;BME280;6452;41.572;23.732;2023-11-21T03:07:43;95192.81;;;2.89;nan
12777;BME280;6452;41.572;23.732;2023-11-21T03:10:14;95164.06;;;2.36;nan
12777;BME280;6452;41.572;23.732;2023-11-21T03:12:40;95211.69;;;2.72;nan
12777;BME280;6452;41.572;23.732;2023-11-21T03:15:07;95245.63;;;2.94;nan
12777;BME280;6452;41.572;23.732;2023-11-21T03:17:34;95246.13;;;2.64;nan
12777;BME280;6452;41.572;23.732;2023-11-21T03:20:07;95254.00;;;2.64;nan
12777;BME280;6452;41.572;23.732;2023-11-21T03:22:37;95238.38;;;2.83;nan
12777;BME280;6452;41.572;23.732;2023-11-21T03:25:06;95246.00;;;2.97;nan
12777;BME280;6452;41.572;23.732;2023-11-21T03:27:32;95239.16;;;2.90;nan
12777;BME280;6452;41.572;23.732;2023-11-21T03:30:03;95245.44;;;2.95;nan
12777;BME280;6452;41.572;23.732;2023-11-21T03:32:33;95197.53;;;2.67;nan
12777;BME280;6452;41.572;23.732;2023-11-21T03:35:04;95179.78;;;2.56;nan
12777;BME280;6452;41.572;23.732;2023-11-21T03:37:32;95234.13;;;2.82;nan
12777;BME280;6452;41.572;23.732;2023-11-21T03:39:58;95233.13;;;2.76;nan
12777;BME280;6452;41.572;23.732;2023-11-21T03:42:25;95178.38;;;2.40;nan
12777;BME280;6452;41.572;23.732;2023-11-21T03:44:52;95169.09;;;2.38;nan
12777;BME280;6452;41.572;23.732;2023-11-21T03:47:19;95244.09;;;2.73;nan
12777;BME280;6452;41.572;23.732;2023-11-21T03:49:46;95181.44;;;2.44;nan
12777;BME280;6452;41.572;23.732;2023-11-21T03:52:12;95229.91;;;2.81;nan
12777;BME280;6452;41.572;23.732;2023-11-21T03:54:39;95191.50;;;2.53;nan
12777;BME280;6452;41.572;23.732;2023-11-21T03:57:11;95240.59;;;2.86;nan
12777;BME280;6452;41.572;23.732;2023-11-21T03:59:41;95232.72;;;2.86;nan
12777;BME280;6452;41.572;23.732;2023-11-21T04:02:09;95232.88;;;2.91;nan
12777;BME280;6452;41.572;23.732;2023-11-21T04:04:35;95243.38;;;2.97;nan
12777;BME280;6452;41.572;23.732;2023-11-21T04:07:01;95236.50;;;2.96;nan
12777;BME280;6452;41.572;23.732;2023-11-21T04:09:29;95254.53;;;2.93;nan
12777;BME280;6452;41.572;23.732;2023-11-21T04:11:56;95202.47;;;2.37;nan
12777;BME280;6452;41.572;23.732;2023-11-21T04:14:22;95247.28;;;2.82;nan
12777;BME280;6452;41.572;23.732;2023-11-21T04:16:49;95187.50;;;2.44;nan
12777;BME280;6452;41.572;23.732;2023-11-21T04:19:15;95241.66;;;2.71;nan
12777;BME280;6452;41.572;23.732;2023-11-21T04:21:42;95245.66;;;2.74;nan
12777;BME280;6452;41.572;23.732;2023-11-21T04:24:09;95240.69;;;2.59;nan
12777;BME280;6452;41.572;23.732;2023-11-21T04:26:36;95188.94;;;2.27;nan
12777;BME280;6452;41.572;23.732;2023-11-21T04:29:02;95240.84;;;2.64;nan
12777;BME280;6452;41.572;23.732;2023-11-21T04:31:30;95239.41;;;2.75;nan
12777;BME280;6452;41.572;23.732;2023-11-21T04:33:58;95195.75;;;2.54;nan
12777;BME280;6452;41.572;23.732;2023-11-21T04:36:24;95241.63;;;2.78;nan
12777;BME280;6452;41.572;23.732;2023-11-21T04:38:51;95242.03;;;2.75;nan
12777;BME280;6452;41.572;23.732;2023-11-21T04:41:18;95254.94;;;2.90;nan
12777;BME280;6452;41.572;23.732;2023-11-21T04:43:45;95201.63;;;2.56;nan
12777;BME280;6452;41.572;23.732;2023-11-21T04:46:11;95195.97;;;2.59;nan
12777;BME280;6452;41.572;23.732;2023-11-21T04:48:42;95244.88;;;2.67;nan
12777;BME280;6452;41.572;23.732;2023-11-21T04:51:13;95251.59;;;2.50;nan
12777;BME280;6452;41.572;23.732;2023-11-21T04:53:39;95260.09;;;2.52;nan
12777;BME280;6452;41.572;23.732;2023-11-21T04:56:06;95244.53;;;2.44;nan
12777;BME280;6452;41.572;23.732;2023-11-21T04:58:33;95213.19;;;2.09;nan
12777;BME280;6452;41.572;23.732;2023-11-21T05:01:01;95256.47;;;2.33;nan
12777;BME280;6452;41.572;23.732;2023-11-21T05:03:27;95205.31;;;1.96;nan
12777;BME280;6452;41.572;23.732;2023-11-21T05:05:56;95248.97;;;2.23;nan
12777;BME280;6452;41.572;23.732;2023-11-21T05:08:23;95259.69;;;2.42;nan
12777;BME280;6452;41.572;23.732;2023-11-21T05:10:50;95219.88;;;2.05;nan
12777;BME280;6452;41.572;23.732;2023-11-21T05:13:17;95265.34;;;2.39;nan
12777;BME280;6452;41.572;23.732;2023-11-21T05:15:44;95223.28;;;2.32;nan
12777;BME280;6452;41.572;23.732;2023-11-21T05:18:12;95238.06;;;2.40;nan
12777;BME280;6452;41.572;23.732;2023-11-21T05:20:45;95269.19;;;2.49;nan
12777;BME280;6452;41.572;23.732;2023-11-21T05:23:14;95230.38;;;2.25;nan
12777;BME280;6452;41.572;23.732;2023-11-21T05:25:44;95278.28;;;2.80;nan
12777;BME280;6452;41.572;23.732;2023-11-21T05:28:12;95185.09;;;2.23;nan
12777;BME280;6452;41.572;23.732;2023-11-21T05:30:39;95253.78;;;2.72;nan
12777;BME280;6452;41.572;23.732;2023-11-21T05:33:09;95240.41;;;2.81;nan
12777;BME280;6452;41.572;23.732;2023-11-21T05:35:36;95281.38;;;3.21;nan
12777;BME280;6452;41.572;23.732;2023-11-21T05:38:03;95252.91;;;2.98;nan
12777;BME280;6452;41.572;23.732;2023-11-21T05:40:31;95289.38;;;3.46;nan
12777;BME280;6452;41.572;23.732;2023-11-21T05:42:58;95294.22;;;3.49;nan
12777;BME280;6452;41.572;23.732;2023-11-21T05:45:25;95292.84;;;3.40;nan
12777;BME280;6452;41.572;23.732;2023-11-21T05:47:51;95282.75;;;3.37;nan
12777;BME280;6452;41.572;23.732;2023-11-21T05:50:18;95283.53;;;3.44;nan
12777;BME280;6452;41.572;23.732;2023-11-21T05:52:46;95289.38;;;3.52;nan
12777;BME280;6452;41.572;23.732;2023-11-21T05:55:13;95248.56;;;3.24;nan
12777;BME280;6452;41.572;23.732;2023-11-21T05:57:42;95283.66;;;3.56;nan
12777;BME280;6452;41.572;23.732;2023-11-21T06:00:13;95281.34;;;3.72;nan
12777;BME280;6452;41.572;23.732;2023-11-21T06:02:49;95247.63;;;3.49;nan
12777;BME280;6452;41.572;23.732;2023-11-21T06:05:20;95238.19;;;3.35;nan
12777;BME280;6452;41.572;23.732;2023-11-21T06:07:47;95283.22;;;3.65;nan
12777;BME280;6452;41.572;23.732;2023-11-21T06:10:14;95193.31;;;3.10;nan
12777;BME280;6452;41.572;23.732;2023-11-21T06:12:40;95281.81;;;3.63;nan
12777;BME280;6452;41.572;23.732;2023-11-21T06:15:09;95249.72;;;3.34;nan
12777;BME280;6452;41.572;23.732;2023-11-21T06:17:39;95292.31;;;3.69;nan
12777;BME280;6452;41.572;23.732;2023-11-21T06:20:07;95288.84;;;3.69;nan
12777;BME280;6452;41.572;23.732;2023-11-21T06:22:43;95282.75;;;3.75;nan
12777;BME280;6452;41.572;23.732;2023-11-21T06:25:29;95277.03;;;3.84;nan
12777;BME280;6452;41.572;23.732;2023-11-21T06:27:59;95302.75;;;3.89;nan
12777;BME280;6452;41.572;23.732;2023-11-21T06:30:26;95300.88;;;3.96;nan
12777;BME280;6452;41.572;23.732;2023-11-21T06:32:53;95303.53;;;3.96;nan
12777;BME280;6452;41.572;23.732;2023-11-21T06:35:21;95306.78;;;3.91;nan
12777;BME280;6452;41.572;23.732;2023-11-21T06:37:47;95319.59;;;4.19;nan
12777;BME280;6452;41.572;23.732;2023-11-21T06:40:14;95314.50;;;4.24;nan
12777;BME280;6452;41.572;23.732;2023-11-21T06:42:43;95285.31;;;3.88;nan
12777;BME280;6452;41.572;23.732;2023-11-21T06:45:10;95233.69;;;3.42;nan
12777;BME280;6452;41.572;23.732;2023-11-21T06:47:37;95315.69;;;3.90;nan
12777;BME280;6452;41.572;23.732;2023-11-21T06:50:05;95311.72;;;3.75;nan
12777;BME280;6452;41.572;23.732;2023-11-21T06:52:33;95323.94;;;3.69;nan
12777;BME280;6452;41.572;23.732;2023-11-21T06:54:59;95318.63;;;3.76;nan
12777;BME280;6452;41.572;23.732;2023-11-21T06:57:26;95320.13;;;4.03;nan
12777;BME280;6452;41.572;23.732;2023-11-21T06:59:57;95319.81;;;4.43;nan
12777;BME280;6452;41.572;23.732;2023-11-21T07:02:24;95304.94;;;5.53;nan
12777;BME280;6452;41.572;23.732;2023-11-21T07:04:50;95310.16;;;6.07;nan
12777;BME280;6452;41.572;23.732;2023-11-21T07:07:18;95315.66;;;6.06;nan
12777;BME280;6452;41.572;23.732;2023-11-21T07:09:44;95320.94;;;6.36;nan
12777;BME280;6452;41.572;23.732;2023-11-21T07:12:11;95312.25;;;6.93;nan
12777;BME280;6452;41.572;23.732;2023-11-21T07:14:38;95304.84;;;7.42;nan
12777;BME280;6452;41.572;23.732;2023-11-21T07:17:07;95304.28;;;8.08;nan
12777;BME280;6452;41.572;23.732;2023-11-21T07:19:34;95261.28;;;8.51;nan
12777;BME280;6452;41.572;23.732;2023-11-21T07:22:02;95300.84;;;9.20;nan
12777;BME280;6452;41.572;23.732;2023-11-21T07:24:29;95297.22;;;9.26;nan
12777;BME280;6452;41.572;23.732;2023-11-21T07:26:58;95300.50;;;9.55;nan
12777;BME280;6452;41.572;23.732;2023-11-21T07:29:29;95297.38;;;9.79;nan
12777;BME280;6452;41.572;23.732;2023-11-21T07:31:56;95265.38;;;9.74;nan
12777;BME280;6452;41.572;23.732;2023-11-21T07:34:22;95283.38;;;10.16;nan
12777;BME280;6452;41.572;23.732;2023-11-21T07:36:49;95293.06;;;10.22;nan
12777;BME280;6452;41.572;23.732;2023-11-21T07:39:16;95283.53;;;10.26;nan
12777;BME280;6452;41.572;23.732;2023-11-21T07:41:43;95208.84;;;9.62;nan
12777;BME280;6452;41.572;23.732;2023-11-21T07:44:15;95276.28;;;10.48;nan
12777;BME280;6452;41.572;23.732;2023-11-21T07:46:42;95248.56;;;9.96;nan
12777;BME280;6452;41.572;23.732;2023-11-21T07:49:13;95282.19;;;10.55;nan
12777;BME280;6452;41.572;23.732;2023-11-21T07:51:45;95248.13;;;10.04;nan
12777;BME280;6452;41.572;23.732;2023-11-21T07:54:16;95290.09;;;11.14;nan
12777;BME280;6452;41.572;23.732;2023-11-21T07:56:43;95286.91;;;10.43;nan
12777;BME280;6452;41.572;23.732;2023-11-21T07:59:11;95291.94;;;10.45;nan
12777;BME280;6452;41.572;23.732;2023-11-21T08:01:39;95305.56;;;10.48;nan
12777;BME280;6452;41.572;23.732;2023-11-21T08:04:06;95304.22;;;10.46;nan
12777;BME280;6452;41.572;23.732;2023-11-21T08:06:33;95293.88;;;10.49;nan
12777;BME280;6452;41.572;23.732;2023-11-21T08:09:00;95230.25;;;10.26;nan
12777;BME280;6452;41.572;23.732;2023-11-21T08:11:26;95267.41;;;10.75;nan
12777;BME280;6452;41.572;23.732;2023-11-21T08:13:55;95299.88;;;10.13;nan
12777;BME280;6452;41.572;23.732;2023-11-21T08:16:22;95291.31;;;10.11;nan
12777;BME280;6452;41.572;23.732;2023-11-21T08:18:50;95299.34;;;10.16;nan
12777;BME280;6452;41.572;23.732;2023-11-21T08:21:17;95302.13;;;10.21;nan
12777;BME280;6452;41.572;23.732;2023-11-21T08:23:45;95299.03;;;10.93;nan
12777;BME280;6452;41.572;23.732;2023-11-21T08:26:11;95292.16;;;10.65;nan
12777;BME280;6452;41.572;23.732;2023-11-21T08:28:42;95298.91;;;10.19;nan
12777;BME280;6452;41.572;23.732;2023-11-21T08:31:09;95296.66;;;10.11;nan
12777;BME280;6452;41.572;23.732;2023-11-21T08:33:36;95294.88;;;10.43;nan
12777;BME280;6452;41.572;23.732;2023-11-21T08:36:07;95292.38;;;10.10;nan
12777;BME280;6452;41.572;23.732;2023-11-21T08:38:35;95281.31;;;10.18;nan
12777;BME280;6452;41.572;23.732;2023-11-21T08:41:06;95286.81;;;10.11;nan
12777;BME280;6452;41.572;23.732;2023-11-21T08:43:35;95292.44;;;10.15;nan
12777;BME280;6452;41.572;23.732;2023-11-21T08:46:02;95289.34;;;10.23;nan
12777;BME280;6452;41.572;23.732;2023-11-21T08:48:29;95288.69;;;10.16;nan
12777;BME280;6452;41.572;23.732;2023-11-21T08:50:56;95275.19;;;10.44;nan
12777;BME280;6452;41.572;23.732;2023-11-21T08:53:22;95238.41;;;10.46;nan
12777;BME280;6452;41.572;23.732;2023-11-21T08:55:49;95268.97;;;10.66;nan
12777;BME280;6452;41.572;23.732;2023-11-21T08:58:15;95266.03;;;12.13;nan
12777;BME280;6452;41.572;23.732;2023-11-21T09:00:43;95254.59;;;12.99;nan
12777;BME280;6452;41.572;23.732;2023-11-21T09:03:13;95215.31;;;12.49;nan
12777;BME280;6452;41.572;23.732;2023-11-21T09:05:39;95236.97;;;12.68;nan
12777;BME280;6452;41.572;23.732;2023-11-21T09:08:06;95248.91;;;12.04;nan
12777;BME280;6452;41.572;23.732;2023-11-21T09:10:34;95232.25;;;11.72;nan
12777;BME280;6452;41.572;23.732;2023-11-21T09:13:03;95192.38;;;11.45;nan
12777;BME280;6452;41.572;23.732;2023-11-21T09:15:37;95205.41;;;12.80;nan
12777;BME280;6452;41.572;23.732;2023-11-21T09:18:04;95217.34;;;13.33;nan
12777;BME280;6452;41.572;23.732;2023-11-21T09:20:31;95184.69;;;13.36;nan
12777;BME280;6452;41.572;23.732;2023-11-21T09:23:00;95218.53;;;13.71;nan
12777;BME280;6452;41.572;23.732;2023-11-21T09:25:27;95211.28;;;13.82;nan
12777;BME280;6452;41.572;23.732;2023-11-21T09:27:54;95211.28;;;13.82;nan
12777;BME280;6452;41.572;23.732;2023-11-21T09:30:22;95207.75;;;13.22;nan
12777;BME280;6452;41.572;23.732;2023-11-21T09:32:51;95204.03;;;13.13;nan
12777;BME280;6452;41.572;23.732;2023-11-21T09:35:21;95205.06;;;13.12;nan
12777;BME280;6452;41.572;23.732;2023-11-21T09:37:48;95192.75;;;13.26;nan
12777;BME280;6452;41.572;23.732;2023-11-21T09:40:15;95143.69;;;13.51;nan
12777;BME280;6452;41.572;23.732;2023-11-21T09:42:55;95153.47;;;14.54;nan
12777;BME280;6452;41.572;23.732;2023-11-21T09:45:26;95181.81;;;15.17;nan
12777;BME280;6452;41.572;23.732;2023-11-21T09:47:56;95178.19;;;15.51;nan
12777;BME280;6452;41.572;23.732;2023-11-21T09:50:23;95170.00;;;17.06;nan
12777;BME280;6452;41.572;23.732;2023-11-21T09:55:34;95156.88;;;17.86;nan
12777;BME280;6452;41.572;23.732;2023-11-21T09:58:04;95152.22;;;18.59;nan
12777;BME280;6452;41.572;23.732;2023-11-21T10:00:34;95132.84;;;17.63;nan
12777;BME280;6452;41.572;23.732;2023-11-21T10:03:00;95134.59;;;17.53;nan
12777;BME280;6452;41.572;23.732;2023-11-21T10:05:28;95065.19;;;18.09;nan
12777;BME280;6452;41.572;23.732;2023-11-21T10:07:56;95128.63;;;18.95;nan
12777;BME280;6452;41.572;23.732;2023-11-21T10:10:27;95089.47;;;19.06;nan
12777;BME280;6452;41.572;23.732;2023-11-21T10:13:14;95129.50;;;20.52;nan
12777;BME280;6452;41.572;23.732;2023-11-21T10:15:44;95122.88;;;19.59;nan
12777;BME280;6452;41.572;23.732;2023-11-21T10:18:15;95136.38;;;18.57;nan
12777;BME280;6452;41.572;23.732;2023-11-21T10:20:42;95119.03;;;17.78;nan
12777;BME280;6452;41.572;23.732;2023-11-21T10:23:09;95054.03;;;16.75;nan
12777;BME280;6452;41.572;23.732;2023-11-21T10:25:38;95095.06;;;18.34;nan
12777;BME280;6452;41.572;23.732;2023-11-21T10:28:10;95108.25;;;19.68;nan
12777;BME280;6452;41.572;23.732;2023-11-21T10:30:40;95080.78;;;21.16;nan
12777;BME280;6452;41.572;23.732;2023-11-21T10:33:07;95085.53;;;20.47;nan
12777;BME280;6452;41.572;23.732;2023-11-21T10:35:47;95045.38;;;21.04;nan
12777;BME280;6452;41.572;23.732;2023-11-21T10:38:17;95050.44;;;23.13;nan
12777;BME280;6452;41.572;23.732;2023-11-21T10:40:44;95082.19;;;22.23;nan
12777;BME280;6452;41.572;23.732;2023-11-21T10:43:11;95072.47;;;22.75;nan
12777;BME280;6452;41.572;23.732;2023-11-21T10:45:39;95075.28;;;23.60;nan
12777;BME280;6452;41.572;23.732;2023-11-21T10:48:13;95061.59;;;24.65;nan
12777;BME280;6452;41.572;23.732;2023-11-21T10:51:01;95070.50;;;23.45;nan
12777;BME280;6452;41.572;23.732;2023-11-21T10:53:33;95059.28;;;22.65;nan
12777;BME280;6452;41.572;23.732;2023-11-21T10:56:05;95051.53;;;24.37;nan
12777;BME280;6452;41.572;23.732;2023-11-21T10:58:36;94998.81;;;24.18;nan
12777;BME280;6452;41.572;23.732;2023-11-21T11:01:06;94995.84;;;24.50;nan
12777;BME280;6452;41.572;23.732;2023-11-21T11:03:36;94983.31;;;24.77;nan
12777;BME280;6452;41.572;23.732;2023-11-21T11:06:05;95006.94;;;24.58;nan
12777;BME280;6452;41.572;23.732;2023-11-21T11:08:37;95016.06;;;23.82;nan
12777;BME280;6452;41.572;23.732;2023-11-21T11:11:24;95004.00;;;25.76;nan
12777;BME280;6452;41.572;23.732;2023-11-21T11:13:50;94956.41;;;25.93;nan
12777;BME280;6452;41.572;23.732;2023-11-21T11:16:18;94980.09;;;26.08;nan
12777;BME280;6452;41.572;23.732;2023-11-21T11:18:44;94977.28;;;26.04;nan
12777;BME280;6452;41.572;23.732;2023-11-21T11:21:57;94986.03;;;23.78;nan
12777;BME280;6452;41.572;23.732;2023-11-21T11:30:11;94981.91;;;23.20;nan
12777;BME280;6452;41.572;23.732;2023-11-21T11:38:07;94934.75;;;26.03;nan
12777;BME280;6452;41.572;23.732;2023-11-21T11:40:47;94956.88;;;26.79;nan
12777;BME280;6452;41.572;23.732;2023-11-21T11:43:25;94937.84;;;28.21;nan
12777;BME280;6452;41.572;23.732;2023-11-21T11:45:55;94952.97;;;28.45;nan
12777;BME280;6452;41.572;23.732;2023-11-21T11:48:22;94947.25;;;26.66;nan
12777;BME280;6452;41.572;23.732;2023-11-21T11:51:11;94965.00;;;26.75;nan
12777;BME280;6452;41.572;23.732;2023-11-21T11:53:44;94963.38;;;25.55;nan
12777;BME280;6452;41.572;23.732;2023-11-21T11:56:30;94977.47;;;25.07;nan
12777;BME280;6452;41.572;23.732;2023-11-21T11:58:59;94942.53;;;23.94;nan
12777;BME280;6452;41.572;23.732;2023-11-21T12:01:33;94964.66;;;22.67;nan
12777;BME280;6452;41.572;23.732;2023-11-21T12:06:43;94960.13;;;21.39;nan
12777;BME280;6452;41.572;23.732;2023-11-21T12:09:20;94923.31;;;20.42;nan
12777;BME280;6452;41.572;23.732;2023-11-21T12:11:48;94903.56;;;19.86;nan
12777;BME280;6452;41.572;23.732;2023-11-21T12:14:15;94952.03;;;20.72;nan
12777;BME280;6452;41.572;23.732;2023-11-21T12:16:42;94947.63;;;20.59;nan
12777;BME280;6452;41.572;23.732;2023-11-21T12:19:11;94942.78;;;20.35;nan
12777;BME280;6452;41.572;23.732;2023-11-21T12:21:38;94906.47;;;19.55;nan
12777;BME280;6452;41.572;23.732;2023-11-21T12:26:53;94950.88;;;18.89;nan
12777;BME280;6452;41.572;23.732;2023-11-21T12:29:20;94933.63;;;19.07;nan
12777;BME280;6452;41.572;23.732;2023-11-21T12:31:49;94902.31;;;19.06;nan
12777;BME280;6452;41.572;23.732;2023-11-21T12:34:16;94927.00;;;19.56;nan
12777;BME280;6452;41.572;23.732;2023-11-21T12:36:44;94893.34;;;18.62;nan
12777;BME280;6452;41.572;23.732;2023-11-21T12:39:11;94929.47;;;18.13;nan
12777;BME280;6452;41.572;23.732;2023-11-21T12:41:38;94915.91;;;17.74;nan
12777;BME280;6452;41.572;23.732;2023-11-21T12:44:09;94928.22;;;18.19;nan
12777;BME280;6452;41.572;23.732;2023-11-21T12:46:42;94876.22;;;19.87;nan
12777;BME280;6452;41.572;23.732;2023-11-21T12:49:14;94902.50;;;19.44;nan
12777;BME280;6452;41.572;23.732;2023-11-21T12:51:45;94874.50;;;18.97;nan
12777;BME280;6452;41.572;23.732;2023-11-21T12:54:12;94916.84;;;18.62;nan
12777;BME280;6452;41.572;23.732;2023-11-21T12:56:39;94914.16;;;18.70;nan
12777;BME280;6452;41.572;23.732;2023-11-21T12:59:06;94909.38;;;18.28;nan
12777;BME280;6452;41.572;23.732;2023-11-21T13:01:32;94909.78;;;18.44;nan
12777;BME280;6452;41.572;23.732;2023-11-21T13:04:07;94888.22;;;17.82;nan
12777;BME280;6452;41.572;23.732;2023-11-21T13:06:36;94873.78;;;17.33;nan
12777;BME280;6452;41.572;23.732;2023-11-21T13:09:10;94901.59;;;17.65;nan
12777;BME280;6452;41.572;23.732;2023-11-21T13:11:37;94856.69;;;17.15;nan
12777;BME280;6452;41.572;23.732;2023-11-21T13:14:05;94900.41;;;17.57;nan
12777;BME280;6452;41.572;23.732;2023-11-21T13:16:32;94907.25;;;17.41;nan
12777;BME280;6452;41.572;23.732;2023-11-21T13:18:59;94895.50;;;17.01;nan
12777;BME280;6452;41.572;23.732;2023-11-21T13:21:26;94894.69;;;17.14;nan
12777;BME280;6452;41.572;23.732;2023-11-21T13:23:57;94897.53;;;17.76;nan
12777;BME280;6452;41.572;23.732;2023-11-21T13:26:24;94896.69;;;17.67;nan
12777;BME280;6452;41.572;23.732;2023-11-21T13:28:55;94901.22;;;16.99;nan
12777;BME280;6452;41.572;23.732;2023-11-21T13:31:22;94891.09;;;16.83;nan
12777;BME280;6452;41.572;23.732;2023-11-21T13:33:53;94874.16;;;16.00;nan
12777;BME280;6452;41.572;23.732;2023-11-21T13:36:25;94912.34;;;15.70;nan
12777;BME280;6452;41.572;23.732;2023-11-21T13:38:51;94861.66;;;15.31;nan
12777;BME280;6452;41.572;23.732;2023-11-21T13:41:18;94862.84;;;15.24;nan
12777;BME280;6452;41.572;23.732;2023-11-21T13:43:45;94879.38;;;15.13;nan
12777;BME280;6452;41.572;23.732;2023-11-21T13:46:18;94906.38;;;14.84;nan
12777;BME280;6452;41.572;23.732;2023-11-21T13:49:08;94919.69;;;14.52;nan
12777;BME280;6452;41.572;23.732;2023-11-21T13:51:37;94919.56;;;14.62;nan
12777;BME280;6452;41.572;23.732;2023-11-21T13:54:24;94870.34;;;14.53;nan